sensor_id;sensor_type;location;lat;lon;timestamp;pressure;altitude;pressure_sealevel;temperature;humidity
48053;BME280;33824;51.600;5.718;2023-08-17T00:00:10;101795.88;;;19.98;87.79
48053;BME280;33824;51.600;5.718;2023-08-17T00:02:58;101788.00;;;19.96;87.78
48053;BME280;33824;51.600;5.718;2023-08-17T00:05:25;101781.50;;;19.97;87.59
48053;BME280;33824;51.600;5.718;2023-08-17T00:07:51;101776.53;;;19.94;87.35
48053;BME280;33824;51.600;5.718;2023-08-17T00:10:17;101781.78;;;19.89;87.36
48053;BME280;33824;51.600;5.718;2023-08-17T00:12:42;101785.72;;;19.87;87.46
48053;BME280;33824;51.600;5.718;2023-08-17T00:15:09;101775.34;;;19.77;87.74
48053;BME280;33824;51.600;5.718;2023-08-17T00:17:34;101771.78;;;19.77;87.68
48053;BME280;33824;51.600;5.718;2023-08-17T00:20:00;101779.94;;;19.70;88.17
48053;BME280;33824;51.600;5.718;2023-08-17T00:22:25;101766.00;;;19.67;87.84
48053;BME280;33824;51.600;5.718;2023-08-17T00:24:51;101778.28;;;19.56;88.57
48053;BME280;33824;51.600;5.718;2023-08-17T00:27:16;101769.34;;;19.49;88.89
48053;BME280;33824;51.600;5.718;2023-08-17T00:29:42;101766.47;;;19.44;88.75
48053;BME280;33824;51.600;5.718;2023-08-17T00:32:07;101772.47;;;19.39;88.46
48053;BME280;33824;51.600;5.718;2023-08-17T00:34:33;101760.16;;;19.37;88.80
48053;BME280;33824;51.600;5.718;2023-08-17T00:36:59;101752.91;;;19.24;89.47
48053;BME280;33824;51.600;5.718;2023-08-17T00:39:24;101753.94;;;19.23;89.84
48053;BME280;33824;51.600;5.718;2023-08-17T00:41:50;101748.31;;;19.18;89.75
48053;BME280;33824;51.600;5.718;2023-08-17T00:44:16;101756.44;;;19.18;90.00
48053;BME280;33824;51.600;5.718;2023-08-17T00:46:41;101760.41;;;19.15;89.74
48053;BME280;33824;51.600;5.718;2023-08-17T00:49:07;101763.53;;;19.12;90.18
48053;BME280;33824;51.600;5.718;2023-08-17T00:51:33;101761.84;;;19.11;90.24
48053;BME280;33824;51.600;5.718;2023-08-17T00:54:01;101768.50;;;19.02;90.69
48053;BME280;33824;51.600;5.718;2023-08-17T00:56:27;101762.88;;;19.04;90.99
48053;BME280;33824;51.600;5.718;2023-08-17T00:58:53;101766.44;;;19.04;90.64
48053;BME280;33824;51.600;5.718;2023-08-17T01:01:19;101760.59;;;19.01;91.11
48053;BME280;33824;51.600;5.718;2023-08-17T01:03:46;101768.91;;;18.99;91.41
48053;BME280;33824;51.600;5.718;2023-08-17T01:06:11;101770.78;;;18.99;91.30
48053;BME280;33824;51.600;5.718;2023-08-17T01:08:42;101774.72;;;18.96;91.67
48053;BME280;33824;51.600;5.718;2023-08-17T01:11:32;101774.09;;;18.81;92.70
48053;BME280;33824;51.600;5.718;2023-08-17T01:14:05;101771.63;;;18.86;91.90
48053;BME280;33824;51.600;5.718;2023-08-17T01:17:17;101772.63;;;18.79;92.38
48053;BME280;33824;51.600;5.718;2023-08-17T01:19:33;101777.03;;;18.86;92.59
48053;BME280;33824;51.600;5.718;2023-08-17T01:22:03;101771.59;;;18.80;92.93
48053;BME280;33824;51.600;5.718;2023-08-17T01:24:30;101767.00;;;18.80;93.04
48053;BME280;33824;51.600;5.718;2023-08-17T01:26:55;101761.81;;;18.72;93.60
48053;BME280;33824;51.600;5.718;2023-08-17T01:29:21;101759.75;;;18.74;93.71
48053;BME280;33824;51.600;5.718;2023-08-17T01:31:55;101765.94;;;18.61;94.57
48053;BME280;33824;51.600;5.718;2023-08-17T01:34:25;101761.78;;;18.65;94.63
48053;BME280;33824;51.600;5.718;2023-08-17T01:36:53;101752.84;;;18.58;95.03
48053;BME280;33824;51.600;5.718;2023-08-17T01:39:26;101766.78;;;18.55;95.27
48053;BME280;33824;51.600;5.718;2023-08-17T01:41:52;101765.09;;;18.54;95.64
48053;BME280;33824;51.600;5.718;2023-08-17T01:44:20;101757.84;;;18.55;95.19
48053;BME280;33824;51.600;5.718;2023-08-17T01:46:46;101773.00;;;18.56;94.68
48053;BME280;33824;51.600;5.718;2023-08-17T01:49:12;101774.47;;;18.58;94.38
48053;BME280;33824;51.600;5.718;2023-08-17T01:51:37;101778.41;;;18.56;95.27
48053;BME280;33824;51.600;5.718;2023-08-17T01:54:03;101780.88;;;18.57;95.21
48053;BME280;33824;51.600;5.718;2023-08-17T01:56:28;101780.00;;;18.50;95.77
48053;BME280;33824;51.600;5.718;2023-08-17T01:58:54;101775.84;;;18.48;96.10
48053;BME280;33824;51.600;5.718;2023-08-17T02:01:19;101778.75;;;18.46;96.21
48053;BME280;33824;51.600;5.718;2023-08-17T02:03:45;101773.75;;;18.43;96.43
48053;BME280;33824;51.600;5.718;2023-08-17T02:06:11;101772.31;;;18.41;96.47
48053;BME280;33824;51.600;5.718;2023-08-17T02:08:37;101775.19;;;18.39;96.65
48053;BME280;33824;51.600;5.718;2023-08-17T02:11:03;101778.75;;;18.40;96.05
48053;BME280;33824;51.600;5.718;2023-08-17T02:13:28;101776.44;;;18.37;96.20
48053;BME280;33824;51.600;5.718;2023-08-17T02:15:54;101784.13;;;18.33;97.08
48053;BME280;33824;51.600;5.718;2023-08-17T02:18:20;101783.47;;;18.31;96.91
48053;BME280;33824;51.600;5.718;2023-08-17T02:20:45;101781.00;;;18.30;96.85
48053;BME280;33824;51.600;5.718;2023-08-17T02:23:11;101777.22;;;18.24;97.57
48053;BME280;33824;51.600;5.718;2023-08-17T02:25:39;101782.19;;;18.20;97.31
48053;BME280;33824;51.600;5.718;2023-08-17T02:28:05;101779.31;;;18.22;97.45
48053;BME280;33824;51.600;5.718;2023-08-17T02:30:31;101777.03;;;18.26;97.23
48053;BME280;33824;51.600;5.718;2023-08-17T02:32:57;101773.91;;;18.22;97.39
48053;BME280;33824;51.600;5.718;2023-08-17T02:35:22;101770.38;;;18.21;97.54
48053;BME280;33824;51.600;5.718;2023-08-17T02:37:48;101769.53;;;18.21;97.69
48053;BME280;33824;51.600;5.718;2023-08-17T02:40:14;101766.59;;;18.22;97.78
48053;BME280;33824;51.600;5.718;2023-08-17T02:42:39;101758.72;;;18.21;97.74
48053;BME280;33824;51.600;5.718;2023-08-17T02:45:08;101772.41;;;18.19;97.36
48053;BME280;33824;51.600;5.718;2023-08-17T02:47:34;101759.56;;;18.21;97.38
48053;BME280;33824;51.600;5.718;2023-08-17T02:49:59;101756.88;;;18.21;97.01
48053;BME280;33824;51.600;5.718;2023-08-17T02:52:25;101752.50;;;18.20;97.30
48053;BME280;33824;51.600;5.718;2023-08-17T02:54:51;101748.34;;;18.18;97.68
48053;BME280;33824;51.600;5.718;2023-08-17T02:57:16;101754.16;;;18.21;97.64
48053;BME280;33824;51.600;5.718;2023-08-17T02:59:43;101750.22;;;18.24;97.42
48053;BME280;33824;51.600;5.718;2023-08-17T03:02:09;101747.53;;;18.24;97.29
48053;BME280;33824;51.600;5.718;2023-08-17T03:04:35;101747.53;;;18.24;96.97
48053;BME280;33824;51.600;5.718;2023-08-17T03:07:01;101746.25;;;18.20;97.73
48053;BME280;33824;51.600;5.718;2023-08-17T03:09:26;101755.19;;;18.20;97.44
48053;BME280;33824;51.600;5.718;2023-08-17T03:11:52;101751.28;;;18.30;96.77
48053;BME280;33824;51.600;5.718;2023-08-17T03:14:17;101744.81;;;18.24;96.91
48053;BME280;33824;51.600;5.718;2023-08-17T03:16:43;101749.41;;;18.30;96.78
48053;BME280;33824;51.600;5.718;2023-08-17T03:19:08;101751.28;;;18.30;96.06
48053;BME280;33824;51.600;5.718;2023-08-17T03:21:37;101755.22;;;18.27;96.36
48053;BME280;33824;51.600;5.718;2023-08-17T03:24:02;101751.06;;;18.25;96.26
48053;BME280;33824;51.600;5.718;2023-08-17T03:26:28;101751.69;;;18.27;96.35
48053;BME280;33824;51.600;5.718;2023-08-17T03:28:54;101754.38;;;18.27;96.11
48053;BME280;33824;51.600;5.718;2023-08-17T03:31:20;101753.34;;;18.28;95.80
48053;BME280;33824;51.600;5.718;2023-08-17T03:33:46;101752.31;;;18.29;95.78
48053;BME280;33824;51.600;5.718;2023-08-17T03:36:12;101750.47;;;18.29;95.60
48053;BME280;33824;51.600;5.718;2023-08-17T03:38:38;101751.47;;;18.21;96.00
48053;BME280;33824;51.600;5.718;2023-08-17T03:41:07;101753.34;;;18.21;95.65
48053;BME280;33824;51.600;5.718;2023-08-17T03:43:32;101747.09;;;18.20;95.94
48053;BME280;33824;51.600;5.718;2023-08-17T03:45:58;101740.63;;;18.15;96.34
48053;BME280;33824;51.600;5.718;2023-08-17T03:48:23;101742.53;;;18.14;96.21
48053;BME280;33824;51.600;5.718;2023-08-17T03:50:54;101738.31;;;18.05;96.44
48053;BME280;33824;51.600;5.718;2023-08-17T03:53:20;101741.88;;;18.12;96.26
48053;BME280;33824;51.600;5.718;2023-08-17T03:55:47;101737.72;;;18.10;96.25
48053;BME280;33824;51.600;5.718;2023-08-17T03:58:12;101737.47;;;18.05;96.93
48053;BME280;33824;51.600;5.718;2023-08-17T04:00:38;101735.63;;;18.05;96.48
48053;BME280;33824;51.600;5.718;2023-08-17T04:03:06;101740.00;;;18.06;96.73
48053;BME280;33824;51.600;5.718;2023-08-17T04:05:32;101733.09;;;17.97;97.54
48053;BME280;33824;51.600;5.718;2023-08-17T04:07:58;101733.28;;;17.96;97.44
48053;BME280;33824;51.600;5.718;2023-08-17T04:10:27;101741.19;;;17.97;97.14
48053;BME280;33824;51.600;5.718;2023-08-17T04:12:52;101745.53;;;17.92;97.67
48053;BME280;33824;51.600;5.718;2023-08-17T04:15:18;101748.22;;;17.92;97.90
48053;BME280;33824;51.600;5.718;2023-08-17T04:17:43;101757.94;;;17.86;98.61
48053;BME280;33824;51.600;5.718;2023-08-17T04:20:11;101759.41;;;17.89;98.36
48053;BME280;33824;51.600;5.718;2023-08-17T04:22:36;101762.09;;;17.89;98.27
48053;BME280;33824;51.600;5.718;2023-08-17T04:25:02;101764.44;;;17.98;97.66
48053;BME280;33824;51.600;5.718;2023-08-17T04:27:27;101766.13;;;17.99;97.91
48053;BME280;33824;51.600;5.718;2023-08-17T04:29:53;101772.13;;;17.95;98.17
48053;BME280;33824;51.600;5.718;2023-08-17T04:32:19;101769.84;;;17.98;98.09
48053;BME280;33824;51.600;5.718;2023-08-17T04:34:45;101778.78;;;17.99;98.05
48053;BME280;33824;51.600;5.718;2023-08-17T04:37:11;101759.88;;;17.99;97.94
48053;BME280;33824;51.600;5.718;2023-08-17T04:39:36;101758.66;;;18.01;97.93
48053;BME280;33824;51.600;5.718;2023-08-17T04:42:03;101771.72;;;17.98;97.90
48053;BME280;33824;51.600;5.718;2023-08-17T04:44:29;101770.25;;;17.95;98.30
48053;BME280;33824;51.600;5.718;2023-08-17T04:46:55;101768.56;;;17.94;98.49
48053;BME280;33824;51.600;5.718;2023-08-17T04:49:21;101769.81;;;17.92;98.62
48053;BME280;33824;51.600;5.718;2023-08-17T04:51:46;101771.44;;;17.86;99.57
48053;BME280;33824;51.600;5.718;2023-08-17T04:54:12;101769.13;;;17.83;99.68
48053;BME280;33824;51.600;5.718;2023-08-17T04:56:38;101770.81;;;17.84;99.45
48053;BME280;33824;51.600;5.718;2023-08-17T04:59:04;101775.38;;;17.84;100.00
48053;BME280;33824;51.600;5.718;2023-08-17T05:01:29;101783.25;;;17.85;99.92
48053;BME280;33824;51.600;5.718;2023-08-17T05:03:55;101780.97;;;17.82;100.00
48053;BME280;33824;51.600;5.718;2023-08-17T05:06:20;101780.16;;;17.88;99.73
48053;BME280;33824;51.600;5.718;2023-08-17T05:08:46;101777.25;;;17.90;99.72
48053;BME280;33824;51.600;5.718;2023-08-17T05:11:11;101778.94;;;17.91;99.49
48053;BME280;33824;51.600;5.718;2023-08-17T05:13:38;101771.88;;;17.90;99.95
48053;BME280;33824;51.600;5.718;2023-08-17T05:16:03;101777.28;;;17.96;99.26
48053;BME280;33824;51.600;5.718;2023-08-17T05:18:29;101774.84;;;18.01;99.29
48053;BME280;33824;51.600;5.718;2023-08-17T05:20:54;101778.97;;;17.97;99.68
48053;BME280;33824;51.600;5.718;2023-08-17T05:23:20;101770.44;;;17.94;100.00
48053;BME280;33824;51.600;5.718;2023-08-17T05:25:47;101767.41;;;18.10;99.35
48053;BME280;33824;51.600;5.718;2023-08-17T05:28:15;101776.78;;;18.20;99.26
48053;BME280;33824;51.600;5.718;2023-08-17T05:30:40;101772.25;;;18.28;99.05
48053;BME280;33824;51.600;5.718;2023-08-17T05:33:06;101773.94;;;18.35;98.76
48053;BME280;33824;51.600;5.718;2023-08-17T05:35:32;101765.84;;;18.42;98.56
48053;BME280;33824;51.600;5.718;2023-08-17T05:37:58;101767.19;;;18.52;98.23
48053;BME280;33824;51.600;5.718;2023-08-17T05:40:23;101766.97;;;18.60;97.78
48053;BME280;33824;51.600;5.718;2023-08-17T05:42:49;101759.94;;;18.66;97.19
48053;BME280;33824;51.600;5.718;2023-08-17T05:45:15;101770.97;;;18.71;97.32
48053;BME280;33824;51.600;5.718;2023-08-17T05:47:40;101760.16;;;18.71;97.11
48053;BME280;33824;51.600;5.718;2023-08-17T05:50:07;101767.25;;;18.85;96.46
48053;BME280;33824;51.600;5.718;2023-08-17T05:52:33;101775.94;;;18.74;96.93
48053;BME280;33824;51.600;5.718;2023-08-17T05:54:59;101771.38;;;18.88;96.11
48053;BME280;33824;51.600;5.718;2023-08-17T05:57:25;101767.88;;;19.00;95.90
48053;BME280;33824;51.600;5.718;2023-08-17T05:59:50;101775.16;;;18.93;95.41
48053;BME280;33824;51.600;5.718;2023-08-17T06:02:16;101777.22;;;18.91;95.73
48053;BME280;33824;51.600;5.718;2023-08-17T06:04:41;101773.69;;;18.91;95.42
48053;BME280;33824;51.600;5.718;2023-08-17T06:07:07;101778.06;;;18.98;95.44
48053;BME280;33824;51.600;5.718;2023-08-17T06:09:32;101784.91;;;18.88;95.79
48053;BME280;33824;51.600;5.718;2023-08-17T06:11:58;101789.91;;;18.97;95.44
48053;BME280;33824;51.600;5.718;2023-08-17T06:14:23;101787.63;;;18.94;94.88
48053;BME280;33824;51.600;5.718;2023-08-17T06:16:49;101791.13;;;18.95;95.03
48053;BME280;33824;51.600;5.718;2023-08-17T06:19:14;101789.09;;;19.03;94.74
48053;BME280;33824;51.600;5.718;2023-08-17T06:21:40;101790.13;;;19.15;94.77
48053;BME280;33824;51.600;5.718;2023-08-17T06:24:05;101792.22;;;19.13;94.58
48053;BME280;33824;51.600;5.718;2023-08-17T06:26:31;101798.88;;;19.04;94.66
48053;BME280;33824;51.600;5.718;2023-08-17T06:28:57;101792.81;;;19.02;94.30
48053;BME280;33824;51.600;5.718;2023-08-17T06:31:22;101799.47;;;19.00;94.81
48053;BME280;33824;51.600;5.718;2023-08-17T06:33:53;101790.97;;;19.09;94.46
48053;BME280;33824;51.600;5.718;2023-08-17T06:36:18;101789.72;;;19.05;94.02
48053;BME280;33824;51.600;5.718;2023-08-17T06:38:44;101786.81;;;19.13;94.07
48053;BME280;33824;51.600;5.718;2023-08-17T06:41:10;101782.84;;;19.03;94.14
48053;BME280;33824;51.600;5.718;2023-08-17T06:43:35;101786.19;;;19.05;93.77
48053;BME280;33824;51.600;5.718;2023-08-17T06:46:01;101783.69;;;18.97;94.40
48053;BME280;33824;51.600;5.718;2023-08-17T06:48:28;101788.66;;;19.06;93.89
48053;BME280;33824;51.600;5.718;2023-08-17T06:50:53;101791.78;;;19.10;94.26
48053;BME280;33824;51.600;5.718;2023-08-17T06:53:19;101782.84;;;19.03;94.12
48053;BME280;33824;51.600;5.718;2023-08-17T06:55:44;101790.94;;;19.03;93.81
48053;BME280;33824;51.600;5.718;2023-08-17T06:58:10;101786.19;;;18.98;94.01
48053;BME280;33824;51.600;5.718;2023-08-17T07:00:35;101800.09;;;18.89;93.86
48053;BME280;33824;51.600;5.718;2023-08-17T07:03:01;101789.28;;;18.89;94.20
48053;BME280;33824;51.600;5.718;2023-08-17T07:05:27;101802.19;;;18.93;94.46
48053;BME280;33824;51.600;5.718;2023-08-17T07:07:52;101802.81;;;19.02;94.16
48053;BME280;33824;51.600;5.718;2023-08-17T07:10:19;101805.53;;;19.08;93.76
48053;BME280;33824;51.600;5.718;2023-08-17T07:12:44;101800.72;;;19.04;94.13
48053;BME280;33824;51.600;5.718;2023-08-17T07:15:10;101805.94;;;19.05;93.74
48053;BME280;33824;51.600;5.718;2023-08-17T07:17:36;101800.31;;;19.00;93.46
48053;BME280;33824;51.600;5.718;2023-08-17T07:20:05;101803.25;;;19.05;93.67
48053;BME280;33824;51.600;5.718;2023-08-17T07:22:35;101798.88;;;19.04;93.48
48053;BME280;33824;51.600;5.718;2023-08-17T07:25:00;101803.44;;;19.10;93.42
48053;BME280;33824;51.600;5.718;2023-08-17T07:27:26;101806.56;;;19.14;93.44
48053;BME280;33824;51.600;5.718;2023-08-17T07:29:51;101805.31;;;19.16;93.43
48053;BME280;33824;51.600;5.718;2023-08-17T07:32:18;101803.44;;;19.10;93.63
48053;BME280;33824;51.600;5.718;2023-08-17T07:34:43;101806.97;;;19.17;93.75
48053;BME280;33824;51.600;5.718;2023-08-17T07:37:09;101803.88;;;19.27;93.05
48053;BME280;33824;51.600;5.718;2023-08-17T07:39:35;101801.38;;;19.39;92.97
48053;BME280;33824;51.600;5.718;2023-08-17T07:42:00;101794.69;;;19.41;93.03
48053;BME280;33824;51.600;5.718;2023-08-17T07:44:26;101796.16;;;19.37;93.09
48053;BME280;33824;51.600;5.718;2023-08-17T07:46:53;101793.06;;;19.40;92.58
48053;BME280;33824;51.600;5.718;2023-08-17T07:49:19;101792.47;;;19.51;92.22
48053;BME280;33824;51.600;5.718;2023-08-17T07:51:45;101794.31;;;19.57;91.94
48053;BME280;33824;51.600;5.718;2023-08-17T07:54:11;101803.25;;;19.45;91.99
48053;BME280;33824;51.600;5.718;2023-08-17T07:56:36;101803.91;;;19.47;92.11
48053;BME280;33824;51.600;5.718;2023-08-17T07:59:02;101795.56;;;19.55;91.86
48053;BME280;33824;51.600;5.718;2023-08-17T08:01:28;101805.34;;;19.62;91.80
48053;BME280;33824;51.600;5.718;2023-08-17T08:03:53;101805.94;;;19.64;91.27
48053;BME280;33824;51.600;5.718;2023-08-17T08:06:19;101809.28;;;19.60;91.48
48053;BME280;33824;51.600;5.718;2023-08-17T08:08:46;101804.69;;;19.60;91.90
48053;BME280;33824;51.600;5.718;2023-08-17T08:11:12;101801.41;;;19.58;91.73
48053;BME280;33824;51.600;5.718;2023-08-17T08:13:37;101817.22;;;19.55;91.90
48053;BME280;33824;51.600;5.718;2023-08-17T08:16:03;101817.41;;;19.53;91.84
48053;BME280;33824;51.600;5.718;2023-08-17T08:18:28;101820.53;;;19.50;91.88
48053;BME280;33824;51.600;5.718;2023-08-17T08:20:54;101818.03;;;19.55;91.75
48053;BME280;33824;51.600;5.718;2023-08-17T08:23:19;101818.25;;;19.54;91.85
48053;BME280;33824;51.600;5.718;2023-08-17T08:25:45;101821.97;;;19.59;92.04
48053;BME280;33824;51.600;5.718;2023-08-17T08:28:10;101807.22;;;19.49;91.70
48053;BME280;33824;51.600;5.718;2023-08-17T08:30:36;101811.53;;;19.37;92.64
48053;BME280;33824;51.600;5.718;2023-08-17T08:33:02;101807.63;;;19.39;92.31
48053;BME280;33824;51.600;5.718;2023-08-17T08:35:28;101806.59;;;19.40;92.56
48053;BME280;33824;51.600;5.718;2023-08-17T08:37:54;101818.44;;;19.39;93.06
48053;BME280;33824;51.600;5.718;2023-08-17T08:40:27;101819.47;;;19.32;92.93
48053;BME280;33824;51.600;5.718;2023-08-17T08:42:53;101817.38;;;19.27;93.29
48053;BME280;33824;51.600;5.718;2023-08-17T08:45:19;101820.28;;;19.26;93.38
48053;BME280;33824;51.600;5.718;2023-08-17T08:47:46;101821.53;;;19.16;93.56
48053;BME280;33824;51.600;5.718;2023-08-17T08:50:16;101822.16;;;19.12;93.77
48053;BME280;33824;51.600;5.718;2023-08-17T08:52:53;101823.59;;;19.08;93.42
48053;BME280;33824;51.600;5.718;2023-08-17T08:55:23;101828.19;;;19.14;94.05
48053;BME280;33824;51.600;5.718;2023-08-17T08:57:49;101823.41;;;19.16;93.78
48053;BME280;33824;51.600;5.718;2023-08-17T09:00:16;101821.31;;;19.18;93.72
48053;BME280;33824;51.600;5.718;2023-08-17T09:02:42;101816.31;;;19.22;94.10
48053;BME280;33824;51.600;5.718;2023-08-17T09:05:10;101808.03;;;19.36;93.63
48053;BME280;33824;51.600;5.718;2023-08-17T09:07:37;101801.38;;;19.45;93.80
48053;BME280;33824;51.600;5.718;2023-08-17T09:10:02;101802.88;;;19.48;93.40
48053;BME280;33824;51.600;5.718;2023-08-17T09:12:30;101797.63;;;19.53;93.27
48053;BME280;33824;51.600;5.718;2023-08-17T09:14:55;101798.25;;;19.61;93.08
48053;BME280;33824;51.600;5.718;2023-08-17T09:17:26;101799.72;;;19.57;93.25
48053;BME280;33824;51.600;5.718;2023-08-17T09:19:51;101793.25;;;19.78;92.92
48053;BME280;33824;51.600;5.718;2023-08-17T09:22:25;101786.19;;;19.64;92.28
48053;BME280;33824;51.600;5.718;2023-08-17T09:24:51;101791.16;;;19.80;92.58
48053;BME280;33824;51.600;5.718;2023-08-17T09:27:17;101782.81;;;19.75;93.27
48053;BME280;33824;51.600;5.718;2023-08-17T09:29:43;101784.69;;;19.81;93.38
48053;BME280;33824;51.600;5.718;2023-08-17T09:32:11;101790.94;;;19.82;92.77
48053;BME280;33824;51.600;5.718;2023-08-17T09:34:41;101784.69;;;19.75;93.16
48053;BME280;33824;51.600;5.718;2023-08-17T09:37:07;101786.97;;;19.84;93.11
48053;BME280;33824;51.600;5.718;2023-08-17T09:39:32;101779.28;;;19.75;92.88
48053;BME280;33824;51.600;5.718;2023-08-17T09:41:59;101787.38;;;19.88;92.58
48053;BME280;33824;51.600;5.718;2023-08-17T09:44:25;101783.63;;;19.89;92.57
48053;BME280;33824;51.600;5.718;2023-08-17T09:46:55;101780.06;;;19.95;92.82
48053;BME280;33824;51.600;5.718;2023-08-17T09:49:23;101774.22;;;19.98;92.44
48053;BME280;33824;51.600;5.718;2023-08-17T09:51:49;101777.75;;;20.05;92.30
48053;BME280;33824;51.600;5.718;2023-08-17T09:54:22;101780.47;;;19.98;92.00
48053;BME280;33824;51.600;5.718;2023-08-17T09:56:53;101779.66;;;19.91;92.22
48053;BME280;33824;51.600;5.718;2023-08-17T09:59:20;101780.50;;;19.92;92.69
48053;BME280;33824;51.600;5.718;2023-08-17T10:01:48;101775.50;;;19.95;92.56
48053;BME280;33824;51.600;5.718;2023-08-17T10:04:15;101778.81;;;20.04;92.76
48053;BME280;33824;51.600;5.718;2023-08-17T10:06:43;101769.53;;;20.25;92.25
48053;BME280;33824;51.600;5.718;2023-08-17T10:09:11;101772.63;;;20.41;91.77
48053;BME280;33824;51.600;5.718;2023-08-17T10:11:42;101777.00;;;20.42;91.23
48053;BME280;33824;51.600;5.718;2023-08-17T10:14:19;101769.53;;;20.38;90.82
48053;BME280;33824;51.600;5.718;2023-08-17T10:16:50;101766.34;;;20.47;90.09
48053;BME280;33824;51.600;5.718;2023-08-17T10:19:30;101764.84;;;20.51;90.64
48053;BME280;33824;51.600;5.718;2023-08-17T10:24:32;101759.56;;;20.63;90.21
48053;BME280;33824;51.600;5.718;2023-08-17T10:27:02;101755.47;;;20.54;90.50
48053;BME280;33824;51.600;5.718;2023-08-17T10:29:28;101758.34;;;20.59;90.44
48053;BME280;33824;51.600;5.718;2023-08-17T10:31:55;101745.75;;;20.71;90.50
48053;BME280;33824;51.600;5.718;2023-08-17T10:34:22;101747.56;;;20.84;90.09
48053;BME280;33824;51.600;5.718;2023-08-17T10:36:48;101746.81;;;20.70;89.31
48053;BME280;33824;51.600;5.718;2023-08-17T10:39:21;101749.00;;;20.55;89.44
48053;BME280;33824;51.600;5.718;2023-08-17T10:41:49;101745.19;;;20.63;90.45
48053;BME280;33824;51.600;5.718;2023-08-17T10:44:17;101749.97;;;20.67;90.35
48053;BME280;33824;51.600;5.718;2023-08-17T10:46:42;101746.16;;;20.75;90.03
48053;BME280;33824;51.600;5.718;2023-08-17T10:49:26;101761.53;;;20.49;90.25
48053;BME280;33824;51.600;5.718;2023-08-17T10:52:03;101752.19;;;20.45;90.34
48053;BME280;33824;51.600;5.718;2023-08-17T10:54:42;101750.06;;;20.54;90.08
48053;BME280;33824;51.600;5.718;2023-08-17T10:57:25;101751.53;;;20.50;90.80
48053;BME280;33824;51.600;5.718;2023-08-17T11:00:16;101751.84;;;20.67;90.57
48053;BME280;33824;51.600;5.718;2023-08-17T11:02:43;101755.19;;;20.31;91.86
48053;BME280;33824;51.600;5.718;2023-08-17T11:05:09;101761.03;;;20.66;90.93
48053;BME280;33824;51.600;5.718;2023-08-17T11:07:41;101756.41;;;20.73;90.22
48053;BME280;33824;51.600;5.718;2023-08-17T11:10:11;101750.94;;;20.79;89.81
48053;BME280;33824;51.600;5.718;2023-08-17T11:12:41;101754.69;;;20.78;89.44
48053;BME280;33824;51.600;5.718;2023-08-17T11:15:06;101759.13;;;20.97;89.56
48053;BME280;33824;51.600;5.718;2023-08-17T11:17:32;101763.78;;;20.90;89.28
48053;BME280;33824;51.600;5.718;2023-08-17T11:19:58;101766.28;;;20.92;89.38
48053;BME280;33824;51.600;5.718;2023-08-17T11:22:24;101756.69;;;20.89;89.56
48053;BME280;33824;51.600;5.718;2023-08-17T11:24:51;101761.97;;;21.09;89.35
48053;BME280;33824;51.600;5.718;2023-08-17T11:27:17;101759.78;;;21.24;89.11
48053;BME280;33824;51.600;5.718;2023-08-17T11:29:44;101759.50;;;21.32;88.40
48053;BME280;33824;51.600;5.718;2023-08-17T11:32:10;101761.72;;;21.42;87.28
48053;BME280;33824;51.600;5.718;2023-08-17T11:34:36;101757.34;;;21.41;87.98
48053;BME280;33824;51.600;5.718;2023-08-17T11:37:02;101752.66;;;21.48;87.28
48053;BME280;33824;51.600;5.718;2023-08-17T11:39:33;101762.69;;;21.47;86.69
48053;BME280;33824;51.600;5.718;2023-08-17T11:41:59;101761.03;;;21.46;87.26
48053;BME280;33824;51.600;5.718;2023-08-17T11:44:25;101761.34;;;21.57;87.47
48053;BME280;33824;51.600;5.718;2023-08-17T11:46:51;101759.16;;;21.65;86.13
48053;BME280;33824;51.600;5.718;2023-08-17T11:49:17;101751.94;;;21.77;86.06
48053;BME280;33824;51.600;5.718;2023-08-17T11:51:43;101759.31;;;21.70;86.72
48053;BME280;33824;51.600;5.718;2023-08-17T11:54:08;101757.06;;;21.67;86.29
48053;BME280;33824;51.600;5.718;2023-08-17T11:56:34;101751.81;;;21.72;86.56
48053;BME280;33824;51.600;5.718;2023-08-17T11:59:08;101761.13;;;21.58;85.81
48053;BME280;33824;51.600;5.718;2023-08-17T12:01:36;101758.88;;;21.73;86.13
48053;BME280;33824;51.600;5.718;2023-08-17T12:04:06;101754.19;;;21.62;86.09
48053;BME280;33824;51.600;5.718;2023-08-17T12:06:32;101755.19;;;21.68;86.87
48053;BME280;33824;51.600;5.718;2023-08-17T12:08:58;101756.25;;;21.67;86.86
48053;BME280;33824;51.600;5.718;2023-08-17T12:11:24;101756.16;;;21.73;86.70
48053;BME280;33824;51.600;5.718;2023-08-17T12:13:51;101755.09;;;21.74;86.25
48053;BME280;33824;51.600;5.718;2023-08-17T12:16:18;101753.44;;;21.73;86.07
48053;BME280;33824;51.600;5.718;2023-08-17T12:18:53;101758.13;;;21.66;85.74
48053;BME280;33824;51.600;5.718;2023-08-17T12:21:22;101761.88;;;21.65;85.88
48053;BME280;33824;51.600;5.718;2023-08-17T12:23:48;101762.25;;;21.69;86.09
48053;BME280;33824;51.600;5.718;2023-08-17T12:26:21;101759.31;;;21.70;85.92
48053;BME280;33824;51.600;5.718;2023-08-17T12:28:47;101755.09;;;21.74;86.28
48053;BME280;33824;51.600;5.718;2023-08-17T12:31:13;101757.91;;;21.68;86.13
48053;BME280;33824;51.600;5.718;2023-08-17T12:33:38;101760.66;;;21.61;86.06
48053;BME280;33824;51.600;5.718;2023-08-17T12:36:04;101757.16;;;21.61;86.35
48053;BME280;33824;51.600;5.718;2023-08-17T12:38:31;101763.69;;;21.53;87.15
48053;BME280;33824;51.600;5.718;2023-08-17T12:40:57;101757.75;;;21.63;87.65
48053;BME280;33824;51.600;5.718;2023-08-17T12:43:22;101756.91;;;21.62;87.16
48053;BME280;33824;51.600;5.718;2023-08-17T12:45:48;101752.09;;;21.64;86.80
48053;BME280;33824;51.600;5.718;2023-08-17T12:48:14;101756.63;;;21.70;86.76
48053;BME280;33824;51.600;5.718;2023-08-17T12:50:40;101747.78;;;21.75;87.07